TimeAKST,TemperatureF,Dew PointF,Humidity,Sea Level PressureIn,VisibilityMPH,Wind Direction,Wind SpeedMPH,Gust SpeedMPH,PrecipitationIn,Events,Conditions,WindDirDegrees,DateUTC
12:53 AM,34.0,30.0,85,29.60,10.0,SE,12.7,21.9,0.00,Snow,Light Snow,130,2013-12-15 09:53:00
1:53 AM,34.0,28.9,82,29.60,10.0,ESE,9.2,-,0.00,,Mostly Cloudy,120,2013-12-15 10:53:00
2:29 AM,33.1,30.0,89,29.62,0.5,ESE,12.7,-,0.01,Snow,Snow,110,2013-12-15 11:29:00
2:37 AM,33.1,30.9,92,29.61,1.2,East,8.1,-,0.01,Snow,Light Snow,80,2013-12-15 11:37:00
3:05 AM,33.1,32.0,96,29.62,1.0,Calm,Calm,-,0.00,Snow,Light Snow,0,2013-12-15 12:05:00
3:15 AM,32.0,30.0,92,29.62,0.8,North,3.5,-,0.01,Snow,Light Snow,350,2013-12-15 12:15:00
3:53 AM,32.0,30.9,96,29.61,0.5,ENE,9.2,-,0.06,Snow,Snow,60,2013-12-15 12:53:00
4:53 AM,33.1,30.0,89,29.59,9.0,ESE,11.5,-,0.01,Snow,Light Snow,110,2013-12-15 13:53:00
5:53 AM,33.1,30.9,92,29.61,2.0,East,9.2,-,0.00,Snow,Light Snow,100,2013-12-15 14:53:00
6:08 AM,33.1,32.0,96,29.61,2.0,ESE,8.1,-,0.00,Snow,Light Snow,110,2013-12-15 15:08:00
6:40 AM,32.0,30.0,92,29.62,2.0,Variable,3.5,-,0.02,Snow,Light Snow,0,2013-12-15 15:40:00
6:53 AM,32.0,30.0,92,29.63,2.0,NE,6.9,-,0.04,Snow,Light Snow,40,2013-12-15 15:53:00
7:00 AM,32.0,30.9,96,29.63,1.8,Calm,Calm,-,0.00,Snow,Light Snow,0,2013-12-15 16:00:00
7:04 AM,32.0,30.9,96,29.63,3.0,ENE,3.5,-,0.00,Snow,Light Snow,60,2013-12-15 16:04:00
7:11 AM,32.0,30.0,92,29.63,2.5,ENE,6.9,-,0.00,Snow,Light Snow,70,2013-12-15 16:11:00
7:19 AM,33.1,30.0,89,29.63,6.0,ESE,3.5,-,0.00,Snow,Light Snow,110,2013-12-15 16:19:00
7:31 AM,33.1,30.0,89,29.63,8.0,NE,6.9,-,0.00,Snow,Light Snow,50,2013-12-15 16:31:00
7:53 AM,30.9,30.0,96,29.64,9.0,East,5.8,-,0.00,Snow,Light Snow,80,2013-12-15 16:53:00
8:53 AM,33.1,28.9,85,29.66,9.0,ENE,11.5,-,0.00,Snow,Light Snow,70,2013-12-15 17:53:00
9:53 AM,33.1,30.0,89,29.67,4.0,East,9.2,-,0.00,Snow,Light Snow,90,2013-12-15 18:53:00
10:23 AM,33.1,30.9,92,29.68,4.0,East,10.4,-,0.00,Snow,Light Snow,100,2013-12-15 19:23:00
10:36 AM,32.0,30.9,96,29.68,4.0,ESE,10.4,-,0.01,Snow,Light Snow,120,2013-12-15 19:36:00
10:44 AM,32.0,30.9,96,29.69,4.0,ESE,12.7,-,0.03,Snow,Light Snow,110,2013-12-15 19:44:00
10:53 AM,32.0,30.9,96,29.70,4.0,East,10.4,-,0.04,Snow,Light Snow,90,2013-12-15 19:53:00
11:00 AM,33.1,30.9,92,29.69,2.5,North,6.9,18.4,0.00,Snow,Light Snow,10,2013-12-15 20:00:00
11:07 AM,33.1,30.9,92,29.70,7.0,Variable,5.8,-,0.00,Snow,Light Snow,0,2013-12-15 20:07:00
11:19 AM,33.1,30.0,89,29.70,9.0,East,3.5,-,0.00,Snow,Light Snow,90,2013-12-15 20:19:00
11:49 AM,33.8,30.2,87,29.70,9.0,ESE,5.8,-,0.00,Snow,Light Snow,120,2013-12-15 20:49:00
11:53 AM,33.1,30.9,92,29.70,9.0,East,3.5,-,0.00,Snow,Light Snow,90,2013-12-15 20:53:00
12:00 PM,34.0,30.9,89,29.71,9.0,East,9.2,-,0.00,Snow,Light Snow,100,2013-12-15 21:00:00
12:53 PM,34.0,30.0,85,29.72,9.0,ENE,9.2,-,0.00,Snow,Light Snow,60,2013-12-15 21:53:00
1:53 PM,33.1,28.9,85,29.73,9.0,ENE,6.9,-,0.00,,Mostly Cloudy,70,2013-12-15 22:53:00
2:18 PM,33.1,30.9,92,29.74,10.0,East,9.2,-,N/A,,Overcast,80,2013-12-15 23:18:00
2:53 PM,33.1,30.0,89,29.74,10.0,ESE,12.7,-,0.00,,Mostly Cloudy,110,2013-12-15 23:53:00
3:53 PM,33.1,28.9,85,29.75,10.0,ENE,9.2,-,N/A,,Mostly Cloudy,70,2013-12-16 00:53:00
4:53 PM,33.1,30.0,89,29.75,10.0,ENE,6.9,-,N/A,,Overcast,60,2013-12-16 01:53:00
5:37 PM,33.1,30.0,89,29.76,5.0,ENE,4.6,-,0.00,Snow,Light Snow,70,2013-12-16 02:37:00
5:53 PM,33.1,30.0,89,29.76,7.0,Calm,Calm,-,0.01,Snow,Light Snow,0,2013-12-16 02:53:00
6:29 PM,33.1,28.9,85,29.78,2.0,South,5.8,-,0.00,Snow,Light Snow,180,2013-12-16 03:29:00
6:35 PM,33.1,28.9,85,29.78,1.5,South,8.1,-,0.00,Snow,Light Snow,170,2013-12-16 03:35:00
6:49 PM,32.0,30.2,93,29.78,0.8,Calm,Calm,-,0.01,Snow,Light Snow,0,2013-12-16 03:49:00
6:53 PM,32.0,30.9,96,29.79,0.8,Calm,Calm,-,0.02,Snow,Light Snow,0,2013-12-16 03:53:00
7:28 PM,32.0,30.0,92,29.80,2.0,ENE,4.6,-,0.04,Snow,Light Snow,60,2013-12-16 04:28:00
7:32 PM,32.0,30.0,92,29.80,3.0,ENE,6.9,-,0.04,Snow,Light Snow,60,2013-12-16 04:32:00
7:53 PM,32.0,30.0,92,29.81,3.0,ENE,5.8,-,0.04,Snow,Light Snow,70,2013-12-16 04:53:00
7:56 PM,32.0,30.0,92,29.81,1.8,ENE,4.6,-,0.00,Snow,Light Snow,60,2013-12-16 04:56:00
8:24 PM,32.0,30.0,92,29.81,2.5,East,9.2,-,0.01,Snow,Light Snow,80,2013-12-16 05:24:00
8:29 PM,32.0,30.0,92,29.82,3.0,East,10.4,-,0.01,Snow,Light Snow,80,2013-12-16 05:29:00
8:33 PM,32.0,30.0,92,29.82,4.0,East,10.4,-,0.01,Snow,Light Snow,80,2013-12-16 05:33:00
8:53 PM,32.0,30.0,92,29.83,10.0,ENE,8.1,-,0.01,,Overcast,70,2013-12-16 05:53:00
9:53 PM,32.0,28.9,88,29.86,10.0,ENE,6.9,-,N/A,,Overcast,60,2013-12-16 06:53:00
10:53 PM,32.0,28.9,88,29.89,9.0,Variable,4.6,-,0.00,Snow,Light Snow,0,2013-12-16 07:53:00
11:53 PM,32.0,30.0,92,29.91,9.0,ENE,8.1,-,0.00,Snow,Light Snow,60,2013-12-16 08:53:00